Time;durP1;ratioP1;P1;durP2;ratioP2;P2;SDS_P1;SDS_P2;PMS_P1;PMS_P2;Temp;Humidity;BMP_temperature;BMP_pressure;BME280_temperature;BME280_humidity;BME280_pressure;Samples;Min_cycle;Max_cycle;Signal;HPM_P1;HPM_P2
2022/01/27 00:00:48;;;;;;;;;;;;;;;1.97;99.39;102534.06;2568177;30;138355;-37
2022/01/27 00:06:08;;;;;;;;;;;;;;;1.93;99.08;102535.25;2566757;30;138122;-35
2022/01/27 00:09:01;;;;;;;;;;;;;;;1.93;98.94;102535.25;2568174;30;137861;-38
2022/01/27 00:11:29;;;;;;;;;;;;;;;1.90;98.53;102540.88;2568045;30;137438;-38
2022/01/27 00:14:00;;;;;;;;;;;;;;;1.90;98.08;102535.50;2566459;30;136941;-36
2022/01/27 00:16:31;;;;;;;;;;;;;;;1.91;97.69;102529.97;2569111;30;138504;-36
2022/01/27 00:18:59;;;;;;;;;;;;;;;1.91;98.40;102535.34;2566137;30;138304;-38
2022/01/27 00:21:28;;;;;;;;;;;;;;;1.91;96.94;102534.50;2569288;30;138348;-37
2022/01/27 00:23:56;;;;;;;;;;;;;;;1.91;97.20;102529.13;2568489;30;137318;-38
2022/01/27 00:26:24;;;;;;;;;;;;;;;1.88;96.66;102529.38;2567789;30;138471;-37
2022/01/27 00:28:52;;;;;;;;;;;;;;;1.88;97.31;102521.28;2568396;30;136724;-38
2022/01/27 00:31:21;;;;;;;;;;;;;;;1.86;97.45;102516.00;2567610;30;138874;-38
2022/01/27 00:33:51;;;;;;;;;;;;;;;1.89;97.66;102509.53;2567587;30;138030;-38
2022/01/27 00:36:19;;;;;;;;;;;;;;;1.86;97.38;102508.81;2568170;30;138910;-38
2022/01/27 00:38:49;;;;;;;;;;;;;;;1.85;97.26;102490.06;2568497;30;137039;-38
2022/01/27 00:41:19;;;;;;;;;;;;;;;1.88;97.48;102492.53;2566736;30;138433;-38
2022/01/27 00:43:48;;;;;;;;;;;;;;;1.88;97.23;102476.38;2568564;30;137243;-36
2022/01/27 00:46:18;;;;;;;;;;;;;;;1.89;97.30;102472.69;2567167;30;138199;-38
2022/01/27 00:48:47;;;;;;;;;;;;;;;1.89;97.50;102474.56;2569315;30;136576;-35
2022/01/27 00:51:23;;;;;;;;;;;;;;;1.86;97.43;102465.72;2568633;30;137216;-38
2022/01/27 00:54:04;;;;;;;;;;;;;;;1.84;96.94;102453.34;2567775;30;137342;-36
2022/01/27 00:56:43;;;;;;;;;;;;;;;1.82;98.27;102436.47;2568924;30;139086;-36
2022/01/27 01:01:52;;;;;;;;;;;;;;;1.72;98.19;102412.94;2568712;30;138421;-38
2022/01/27 01:04:27;;;;;;;;;;;;;;;1.78;98.74;102421.53;2569044;30;137852;-38
2022/01/27 01:06:55;;;;;;;;;;;;;;;1.75;98.70;102421.75;2569511;30;138332;-38
2022/01/27 01:17:29;;;;;;;;;;;;;;;1.70;99.27;102408.63;2568975;30;137829;-40
2022/01/27 01:33:11;;;;;;;;;;;;;;;1.65;99.00;102421.56;2567743;30;138287;-40
2022/01/27 01:35:49;;;;;;;;;;;;;;;1.64;99.73;102409.94;2569179;30;137065;-40
2022/01/27 01:38:19;;;;;;;;;;;;;;;1.58;99.65;102416.63;2568215;30;137314;-40
2022/01/27 01:40:48;;;;;;;;;;;;;;;1.62;99.78;102424.50;2565620;30;137539;-40
2022/01/27 01:43:16;;;;;;;;;;;;;;;1.63;99.45;102428.91;2569549;30;137222;-40
2022/01/27 01:45:47;;;;;;;;;;;;;;;1.61;99.59;102414.72;2567823;30;137177;-40
2022/01/27 01:48:15;;;;;;;;;;;;;;;1.60;99.44;102418.38;2568745;30;138004;-40
2022/01/27 01:50:43;;;;;;;;;;;;;;;1.66;99.94;102417.91;2567119;30;137089;-40
2022/01/27 01:53:11;;;;;;;;;;;;;;;1.66;99.58;102421.44;2567517;30;138184;-40
2022/01/27 01:55:39;;;;;;;;;;;;;;;1.63;99.81;102413.59;2569218;30;136744;-40
2022/01/27 01:58:07;;;;;;;;;;;;;;;1.65;100.00;102410.81;2569820;30;138153;-40
2022/01/27 02:00:35;;;;;;;;;;;;;;;1.63;100.00;102404.69;2568818;30;137234;-40
2022/01/27 02:03:03;;;;;;;;;;;;;;;1.62;100.00;102389.53;2568756;30;138980;-40
2022/01/27 02:05:37;;;;;;;;;;;;;;;1.55;100.00;102387.25;2568702;30;136996;-40
2022/01/27 02:19:29;;;;;;;;;;;;;;;1.65;100.00;102367.75;2567668;30;139514;-40
2022/01/27 02:21:58;;;;;;;;;;;;;;;1.67;100.00;102365.81;2568709;30;136750;-40
2022/01/27 02:24:28;;;;;;;;;;;;;;;1.65;100.00;102376.69;2568816;30;139047;-40
2022/01/27 02:26:57;;;;;;;;;;;;;;;1.67;100.00;102371.19;2567746;30;137979;-40
2022/01/27 02:29:25;;;;;;;;;;;;;;;1.67;100.00;102368.50;2568145;30;138396;-40
2022/01/27 02:31:54;;;;;;;;;;;;;;;1.67;100.00;102363.13;2568522;30;137820;-40
2022/01/27 02:34:22;;;;;;;;;;;;;;;1.69;100.00;102353.94;2568940;30;138510;-40
2022/01/27 02:36:50;;;;;;;;;;;;;;;1.70;100.00;102341.34;2569006;30;137751;-40
2022/01/27 02:39:18;;;;;;;;;;;;;;;1.74;100.00;102339.31;2567788;30;137124;-40
2022/01/27 02:42:06;;;;;;;;;;;;;;;1.72;100.00;102348.34;2569333;30;136975;-40
2022/01/27 02:44:40;;;;;;;;;;;;;;;1.72;100.00;102358.25;2569447;30;137984;-40
2022/01/27 02:47:07;;;;;;;;;;;;;;;1.78;100.00;102352.38;2568113;30;137309;-41
2022/01/27 02:49:35;;;;;;;;;;;;;;;1.76;100.00;102354.34;2568792;30;138980;-40
2022/01/27 02:52:03;;;;;;;;;;;;;;;1.76;100.00;102348.97;2568815;30;137193;-40
2022/01/27 02:54:31;;;;;;;;;;;;;;;1.77;100.00;102355.22;2567794;30;137909;-40
2022/01/27 02:57:20;;;;;;;;;;;;;;;1.76;100.00;102340.88;2568896;30;136767;-40
2022/01/27 02:59:48;;;;;;;;;;;;;;;1.80;100.00;102334.28;2569377;30;138369;-40
2022/01/27 03:02:16;;;;;;;;;;;;;;;1.80;100.00;102326.22;2568329;30;137936;-40
2022/01/27 03:04:44;;;;;;;;;;;;;;;1.80;100.00;102320.00;2569860;30;137106;-40
2022/01/27 03:07:12;;;;;;;;;;;;;;;1.80;100.00;102317.28;2568242;30;136929;-40
2022/01/27 03:09:40;;;;;;;;;;;;;;;1.79;100.00;102313.72;2568508;30;137169;-40
2022/01/27 03:12:11;;;;;;;;;;;;;;;1.84;100.00;102325.00;2566009;30;138101;-40
2022/01/27 03:14:41;;;;;;;;;;;;;;;1.82;100.00;102320.72;2569718;30;137236;-40
2022/01/27 03:17:10;;;;;;;;;;;;;;;1.82;100.00;102318.88;2568923;30;137760;-40
2022/01/27 03:19:38;;;;;;;;;;;;;;;1.84;100.00;102319.59;2569142;30;138653;-40
2022/01/27 03:22:06;;;;;;;;;;;;;;;1.84;100.00;102308.84;2568540;30;137965;-40
2022/01/27 03:24:35;;;;;;;;;;;;;;;1.84;100.00;102300.78;2568537;30;138435;-40
2022/01/27 03:27:06;;;;;;;;;;;;;;;1.81;100.00;102292.09;2565929;30;137199;-40
2022/01/27 03:29:34;;;;;;;;;;;;;;;1.83;100.00;102277.53;2569072;30;138382;-40
2022/01/27 03:32:02;;;;;;;;;;;;;;;1.82;100.00;102273.13;2567395;30;137183;-40
2022/01/27 03:34:29;;;;;;;;;;;;;;;1.85;100.00;102283.66;2570823;30;138507;-40
2022/01/27 03:36:57;;;;;;;;;;;;;;;1.83;100.00;102285.59;2568524;30;137818;-40
2022/01/27 03:39:26;;;;;;;;;;;;;;;1.82;100.00;102288.44;2568902;30;138139;-40
2022/01/27 03:41:56;;;;;;;;;;;;;;;1.77;100.00;102294.16;2565797;30;137345;-40
2022/01/27 03:44:25;;;;;;;;;;;;;;;1.82;100.00;102293.81;2567546;30;139174;-40
2022/01/27 03:46:55;;;;;;;;;;;;;;;1.79;100.00;102289.50;2567645;30;137697;-40
2022/01/27 03:49:23;;;;;;;;;;;;;;;1.77;100.00;102286.06;2565585;30;139105;-40
2022/01/27 03:51:52;;;;;;;;;;;;;;;1.82;100.00;102267.72;2568213;30;137372;-40
2022/01/27 03:54:19;;;;;;;;;;;;;;;1.76;100.00;102276.28;2569192;30;136692;-40
2022/01/27 03:56:47;;;;;;;;;;;;;;;1.79;100.00;102292.19;2568022;30;137082;-40
2022/01/27 03:59:15;;;;;;;;;;;;;;;1.81;100.00;102290.25;2567061;30;138668;-40
2022/01/27 04:01:43;;;;;;;;;;;;;;;1.83;100.00;102284.75;2569166;30;136715;-40
2022/01/27 04:04:11;;;;;;;;;;;;;;;1.86;100.00;102279.13;2567792;30;139152;-40
2022/01/27 04:06:40;;;;;;;;;;;;;;;1.90;100.00;102279.75;2566791;30;137276;-40
2022/01/27 04:09:09;;;;;;;;;;;;;;;1.86;100.00;102253.09;2568328;30;137268;-40
2022/01/27 04:11:38;;;;;;;;;;;;;;;1.91;100.00;102252.72;2568370;30;137108;-40
2022/01/27 04:14:07;;;;;;;;;;;;;;;1.86;100.00;102241.44;2567368;30;138450;-40
2022/01/27 04:16:34;;;;;;;;;;;;;;;1.88;100.00;102246.72;2569043;30;136903;-40
2022/01/27 04:19:02;;;;;;;;;;;;;;;1.84;100.00;102238.88;2567569;30;138458;-40
2022/01/27 04:21:30;;;;;;;;;;;;;;;1.84;100.00;102246.09;2568713;30;136973;-40
2022/01/27 04:23:58;;;;;;;;;;;;;;;1.90;100.00;102242.06;2565588;30;138756;-40
2022/01/27 04:26:37;;;;;;;;;;;;;;;1.90;100.00;102242.06;2568472;30;137017;-40
2022/01/27 04:29:05;;;;;;;;;;;;;;;1.90;100.00;102242.06;2568155;30;139027;-40
2022/01/27 04:31:33;;;;;;;;;;;;;;;1.90;100.00;102248.31;2568876;30;137114;-40
2022/01/27 04:34:01;;;;;;;;;;;;;;;1.90;100.00;102237.53;2568123;30;137044;-40
2022/01/27 04:36:31;;;;;;;;;;;;;;;1.97;100.00;102246.84;2568089;30;137899;-40
2022/01/27 04:39:11;;;;;;;;;;;;;;;1.98;100.00;102243.16;2569339;30;139275;-40
2022/01/27 04:41:59;;;;;;;;;;;;;;;1.96;100.00;102225.44;2566369;30;137294;-40
2022/01/27 04:44:35;;;;;;;;;;;;;;;1.97;100.00;102222.59;2566177;30;139059;-39
2022/01/27 04:47:20;;;;;;;;;;;;;;;2.00;100.00;102221.53;2568649;30;137062;-40
2022/01/27 04:49:47;;;;;;;;;;;;;;;2.06;100.00;102204.03;2567810;30;137256;-40
2022/01/27 04:52:15;;;;;;;;;;;;;;;2.06;100.00;102194.09;2568362;30;137494;-40
2022/01/27 04:55:02;;;;;;;;;;;;;;;2.06;100.00;102186.03;2569379;30;137325;-40
2022/01/27 04:57:31;;;;;;;;;;;;;;;2.03;100.00;102180.88;2568811;30;137175;-40
2022/01/27 04:59:59;;;;;;;;;;;;;;;2.09;100.00;102171.47;2567293;30;139125;-40
2022/01/27 05:02:45;;;;;;;;;;;;;;;2.08;100.00;102162.53;2566681;30;137561;-40
2022/01/27 05:05:17;;;;;;;;;;;;;;;2.10;100.00;102167.78;2567539;30;139110;-40
2022/01/27 05:08:22;;;;;;;;;;;;;;;2.11;100.00;102169.50;2567826;30;137903;-40
2022/01/27 05:10:52;;;;;;;;;;;;;;;2.14;100.00;102172.81;2566862;30;137246;-40
2022/01/27 05:13:22;;;;;;;;;;;;;;;2.15;100.00;102177.22;2567992;30;137408;-40
2022/01/27 05:15:50;;;;;;;;;;;;;;;2.20;100.00;102157.97;2568111;30;138238;-40
2022/01/27 05:18:19;;;;;;;;;;;;;;;2.21;100.00;102148.09;2565888;30;137200;-40
2022/01/27 05:20:47;;;;;;;;;;;;;;;2.23;100.00;102140.72;2567623;30;138464;-40
2022/01/27 05:23:15;;;;;;;;;;;;;;;2.25;100.00;102155.75;2566915;30;138108;-40
2022/01/27 05:25:43;;;;;;;;;;;;;;;2.26;100.00;102153.94;2566527;30;138101;-40
2022/01/27 05:28:11;;;;;;;;;;;;;;;2.32;100.00;102157.97;2569191;30;136939;-40
2022/01/27 05:30:38;;;;;;;;;;;;;;;2.32;100.00;102144.50;2567378;30;138972;-40
2022/01/27 05:33:09;;;;;;;;;;;;;;;2.38;100.00;102142.16;2569720;30;137276;-40
2022/01/27 05:35:37;;;;;;;;;;;;;;;2.44;100.00;102147.06;2569054;30;136858;-40
2022/01/27 05:38:05;;;;;;;;;;;;;;;2.44;100.00;102149.75;2568352;30;137838;-40
2022/01/27 05:40:32;;;;;;;;;;;;;;;2.47;100.00;102145.09;2569132;30;137378;-40
2022/01/27 05:43:00;;;;;;;;;;;;;;;2.51;100.00;102139.31;2569194;30;137231;-40
2022/01/27 05:45:28;;;;;;;;;;;;;;;2.56;100.00;102129.03;2568807;30;137447;-40
2022/01/27 05:47:56;;;;;;;;;;;;;;;2.56;100.00;102136.22;2567776;30;137091;-40
2022/01/27 05:50:23;;;;;;;;;;;;;;;2.59;100.00;102109.91;2569078;30;137474;-40
2022/01/27 05:52:51;;;;;;;;;;;;;;;2.63;100.00;102110.47;2569218;30;137397;-40
2022/01/27 05:55:19;;;;;;;;;;;;;;;2.64;100.00;102101.41;2568892;30;139412;-40
2022/01/27 05:57:47;;;;;;;;;;;;;;;2.67;100.00;102108.38;2568841;30;137733;-40
2022/01/27 06:00:15;;;;;;;;;;;;;;;2.70;100.00;102095.53;2567800;30;138650;-40
2022/01/27 06:02:43;;;;;;;;;;;;;;;2.73;100.00;102095.25;2567603;30;138299;-40
2022/01/27 06:05:11;;;;;;;;;;;;;;;2.76;100.00;102093.28;2567916;30;137112;-40
2022/01/27 06:07:39;;;;;;;;;;;;;;;2.79;100.00;102096.59;2568948;30;137404;-41
2022/01/27 06:10:06;;;;;;;;;;;;;;;2.78;100.00;102083.22;2567776;30;138346;-40
2022/01/27 06:12:43;;;;;;;;;;;;;;;2.86;100.00;102083.44;2568714;30;138092;-40
2022/01/27 06:15:11;;;;;;;;;;;;;;;2.83;100.00;102081.88;2569103;30;138281;-40
2022/01/27 06:17:38;;;;;;;;;;;;;;;2.85;100.00;102070.94;2569349;30;137152;-40
2022/01/27 06:20:07;;;;;;;;;;;;;;;2.93;100.00;102068.47;2569007;30;137190;-40
2022/01/27 06:22:35;;;;;;;;;;;;;;;2.92;100.00;102064.06;2568915;30;137310;-40
2022/01/27 06:25:03;;;;;;;;;;;;;;;2.97;100.00;102060.94;2569082;30;138053;-40
2022/01/27 06:27:31;;;;;;;;;;;;;;;2.97;100.00;102042.94;2568391;30;138002;-40
2022/01/27 06:29:59;;;;;;;;;;;;;;;3.11;100.00;102046.25;2568391;30;138693;-40
2022/01/27 06:32:27;;;;;;;;;;;;;;;3.12;100.00;102043.44;2568514;30;137310;-40
2022/01/27 06:34:55;;;;;;;;;;;;;;;3.12;100.00;102035.34;2569703;30;136823;-40
2022/01/27 06:37:23;;;;;;;;;;;;;;;3.17;100.00;102037.63;2567000;30;137903;-40
2022/01/27 06:39:52;;;;;;;;;;;;;;;3.13;100.00;102038.91;2566436;30;137374;-40
2022/01/27 06:42:20;;;;;;;;;;;;;;;3.18;100.00;102036.66;2568740;30;137084;-40
2022/01/27 06:44:48;;;;;;;;;;;;;;;3.23;100.00;102029.03;2567247;30;138486;-40
2022/01/27 06:47:15;;;;;;;;;;;;;;;3.25;100.00;102034.28;2568930;30;137162;-40
2022/01/27 06:49:43;;;;;;;;;;;;;;;3.28;100.00;102036.69;2568641;30;138391;-40
2022/01/27 06:52:11;;;;;;;;;;;;;;;3.40;100.00;102027.53;2568615;30;136790;-40
2022/01/27 06:54:39;;;;;;;;;;;;;;;3.39;100.00;102024.97;2567699;30;138509;-40
2022/01/27 06:57:07;;;;;;;;;;;;;;;3.44;100.00;102023.56;2566157;30;137769;-40
2022/01/27 06:59:35;;;;;;;;;;;;;;;3.45;100.00;102029.84;2568035;30;139325;-40
2022/01/27 07:02:03;;;;;;;;;;;;;;;3.48;100.00;102034.97;2567658;30;136972;-40
2022/01/27 07:04:31;;;;;;;;;;;;;;;3.53;100.00;102031.84;2566512;30;138232;-40
2022/01/27 07:06:58;;;;;;;;;;;;;;;3.59;100.00;102025.91;2568897;30;137372;-40
2022/01/27 07:09:26;;;;;;;;;;;;;;;3.57;100.00;102038.66;2568903;30;137628;-40
2022/01/27 07:11:54;;;;;;;;;;;;;;;3.56;100.00;102034.25;2567097;30;137291;-40
2022/01/27 07:14:22;;;;;;;;;;;;;;;3.57;100.00;102025.16;2576511;30;139248;-38
2022/01/27 07:16:50;;;;;;;;;;;;;;;3.63;100.00;102024.66;2570009;30;136940;-38
2022/01/27 07:19:18;;;;;;;;;;;;;;;3.71;100.00;102013.13;2568535;30;138166;-38
2022/01/27 07:21:46;;;;;;;;;;;;;;;3.75;100.00;102014.59;2568223;30;137147;-38
2022/01/27 07:24:13;;;;;;;;;;;;;;;3.76;100.00;102008.19;2568801;30;138461;-38
2022/01/27 07:26:41;;;;;;;;;;;;;;;3.77;100.00;102012.59;2568765;30;138015;-38
2022/01/27 07:29:09;;;;;;;;;;;;;;;3.77;100.00;102007.22;2569440;30;138511;-38
2022/01/27 07:31:37;;;;;;;;;;;;;;;3.79;100.00;101994.44;2568387;30;137001;-38
2022/01/27 07:34:04;;;;;;;;;;;;;;;3.82;100.00;101996.84;2568365;30;138002;-38
2022/01/27 07:36:33;;;;;;;;;;;;;;;3.87;100.00;101997.28;2568620;30;137920;-38
2022/01/27 07:39:01;;;;;;;;;;;;;;;3.87;100.00;101988.34;2566582;30;137739;-38
2022/01/27 07:41:29;;;;;;;;;;;;;;;3.86;100.00;101986.63;2569772;30;136851;-38
2022/01/27 07:43:57;;;;;;;;;;;;;;;3.91;100.00;101997.00;2568503;30;138140;-38
2022/01/27 07:46:25;;;;;;;;;;;;;;;3.92;100.00;102001.41;2566677;30;137170;-38
2022/01/27 07:48:52;;;;;;;;;;;;;;;3.89;100.00;101989.88;2567878;30;138278;-38
2022/01/27 07:51:20;;;;;;;;;;;;;;;4.01;100.00;101992.47;2568000;30;137187;-37
2022/01/27 07:53:48;;;;;;;;;;;;;;;3.99;100.00;101991.75;2567813;30;138626;-38
2022/01/27 07:56:29;;;;;;;;;;;;;;;3.99;100.00;101991.75;2568214;30;137987;-38
2022/01/27 07:58:57;;;;;;;;;;;;;;;4.00;100.00;101997.00;2569424;30;138345;-38
2022/01/27 08:01:25;;;;;;;;;;;;;;;3.98;100.00;101984.66;2568912;30;137038;-38
2022/01/27 08:03:53;;;;;;;;;;;;;;;4.02;100.00;101995.03;2568687;30;138380;-38
2022/01/27 08:06:21;;;;;;;;;;;;;;;4.08;100.00;101998.16;2568521;30;138053;-38
2022/01/27 08:08:50;;;;;;;;;;;;;;;4.09;100.00;102011.53;2567787;30;138479;-38
2022/01/27 08:11:19;;;;;;;;;;;;;;;4.05;100.00;102014.63;2568197;30;137152;-38
2022/01/27 08:13:47;;;;;;;;;;;;;;;4.10;100.00;102013.22;2568481;30;138589;-38
2022/01/27 08:16:15;;;;;;;;;;;;;;;4.08;100.00;102014.34;2568204;30;138056;-38
2022/01/27 08:18:46;;;;;;;;;;;;;;;4.06;100.00;102016.34;2568215;30;138142;-38
2022/01/27 08:21:14;;;;;;;;;;;;;;;4.00;100.00;102015.91;2567335;30;137225;-38
2022/01/27 08:23:44;;;;;;;;;;;;;;;3.94;100.00;102011.06;2568378;30;137130;-38
2022/01/27 08:26:14;;;;;;;;;;;;;;;3.94;100.00;102002.97;2567087;30;137134;-38
2022/01/27 08:28:50;;;;;;;;;;;;;;;3.89;100.00;101995.28;2568143;30;138839;-38
2022/01/27 08:31:19;;;;;;;;;;;;;;;3.87;100.00;101997.28;2569622;30;137489;-38
2022/01/27 08:33:48;;;;;;;;;;;;;;;3.80;100.00;102004.22;2568391;30;138175;-38
2022/01/27 08:36:17;;;;;;;;;;;;;;;3.74;100.00;102004.78;2568959;30;137294;-38
2022/01/27 08:38:45;;;;;;;;;;;;;;;3.70;100.00;102008.72;2569682;30;139280;-38
2022/01/27 08:41:12;;;;;;;;;;;;;;;3.67;100.00;102022.50;2568533;30;136850;-38
2022/01/27 08:43:40;;;;;;;;;;;;;;;3.70;100.00;102017.69;2566540;30;138674;-38
2022/01/27 08:46:08;;;;;;;;;;;;;;;3.70;100.00;102006.03;2566973;30;136898;-38
2022/01/27 08:48:39;;;;;;;;;;;;;;;3.67;100.00;102014.41;2569191;30;137059;-38
2022/01/27 08:51:10;;;;;;;;;;;;;;;3.64;100.00;102012.00;2569310;30;137001;-38
2022/01/27 08:53:48;;;;;;;;;;;;;;;3.63;100.00;102000.34;2567430;30;138095;-38
2022/01/27 08:56:17;;;;;;;;;;;;;;;3.68;100.00;101997.22;2568514;30;137804;-38
2022/01/27 08:58:45;;;;;;;;;;;;;;;3.66;100.00;101988.41;2567797;30;138904;-38
2022/01/27 09:01:12;;;;;;;;;;;;;;;3.66;100.00;101989.28;2569335;30;136743;-38
2022/01/27 09:03:41;;;;;;;;;;;;;;;3.69;100.00;101994.41;2568653;30;138312;-38
2022/01/27 09:06:09;;;;;;;;;;;;;;;3.76;100.00;101994.72;2569074;30;136704;-38
2022/01/27 09:08:41;;;;;;;;;;;;;;;3.78;100.00;101981.91;2569543;30;137264;-38
2022/01/27 09:11:09;;;;;;;;;;;;;;;3.82;100.00;101987.88;2569084;30;137859;-38
2022/01/27 09:13:38;;;;;;;;;;;;;;;3.83;100.00;101992.28;2566571;30;138492;-38
2022/01/27 09:16:06;;;;;;;;;;;;;;;3.84;100.00;101991.28;2569859;30;137280;-38
2022/01/27 09:18:34;;;;;;;;;;;;;;;3.87;100.00;101986.47;2569048;30;138102;-38
2022/01/27 09:21:06;;;;;;;;;;;;;;;3.85;100.00;101990.31;2569830;30;137037;-38
2022/01/27 09:23:35;;;;;;;;;;;;;;;3.86;100.00;101987.47;2569157;30;138400;-38
2022/01/27 09:26:07;;;;;;;;;;;;;;;3.87;100.00;101977.53;2568934;30;137331;-38
2022/01/27 09:28:35;;;;;;;;;;;;;;;3.87;100.00;101983.78;2568817;30;137813;-38
2022/01/27 09:31:04;;;;;;;;;;;;;;;3.90;100.00;101979.94;2569364;30;137146;-38
2022/01/27 09:33:32;;;;;;;;;;;;;;;3.93;100.00;101989.59;2566988;30;138277;-38
2022/01/27 09:35:59;;;;;;;;;;;;;;;3.93;100.00;101976.09;2569406;30;136783;-38
2022/01/27 09:38:27;;;;;;;;;;;;;;;3.88;100.00;101982.78;2568904;30;137884;-38
2022/01/27 09:40:55;;;;;;;;;;;;;;;3.93;100.00;101982.38;2568629;30;136823;-38
2022/01/27 09:43:23;;;;;;;;;;;;;;;3.93;100.00;101981.50;2569203;30;137176;-38
2022/01/27 09:45:54;;;;;;;;;;;;;;;3.97;100.00;101988.31;2566710;30;137353;-38
2022/01/27 09:48:23;;;;;;;;;;;;;;;3.98;100.00;101987.34;2567489;30;139000;-38
2022/01/27 09:53:29;;;;;;;;;;;;;;;4.07;100.00;101983.81;2568083;30;138267;-38
2022/01/27 09:55:57;;;;;;;;;;;;;;;4.10;100.00;101988.06;2568883;30;137984;-38
2022/01/27 09:58:27;;;;;;;;;;;;;;;4.12;100.00;101992.31;2567008;30;138350;-38
2022/01/27 10:00:55;;;;;;;;;;;;;;;4.12;100.00;101988.78;2568683;30;138126;-38
2022/01/27 10:03:25;;;;;;;;;;;;;;;4.14;100.00;101984.94;2569104;30;138863;-38
2022/01/27 10:06:07;;;;;;;;;;;;;;;4.19;100.00;101989.94;2568322;30;137324;-38
2022/01/27 10:08:40;;;;;;;;;;;;;;;4.23;100.00;101979.66;2569536;30;138997;-38
2022/01/27 10:11:15;;;;;;;;;;;;;;;4.24;100.00;101971.44;2566795;30;138059;-38
2022/01/27 10:13:45;;;;;;;;;;;;;;;4.27;100.00;101973.84;2569692;30;138304;-38
2022/01/27 10:16:29;;;;;;;;;;;;;;;4.28;100.00;101966.63;2569156;30;137524;-38
2022/01/27 10:19:06;;;;;;;;;;;;;;;4.30;100.00;101968.16;2567256;30;138269;-38
2022/01/27 10:21:35;;;;;;;;;;;;;;;4.36;100.00;101968.56;2569630;30;137075;-38
2022/01/27 10:24:26;;;;;;;;;;;;;;;4.37;100.00;101965.75;2568026;30;139918;-38
2022/01/27 10:27:17;;;;;;;;;;;;;;;4.40;100.00;101970.84;2568432;30;137036;-38
2022/01/27 10:32:42;;;;;;;;;;;;;;;4.41;100.00;101960.91;2567794;30;137758;-38
2022/01/27 10:35:11;;;;;;;;;;;;;;;4.39;100.00;101963.75;2569114;30;136737;-38
2022/01/27 10:37:51;;;;;;;;;;;;;;;4.44;100.00;101966.03;2568913;30;137223;-38
2022/01/27 10:40:25;;;;;;;;;;;;;;;4.43;100.00;101967.88;2569197;30;138136;-37
2022/01/27 10:43:03;;;;;;;;;;;;;;;4.47;100.00;101971.13;2568870;30;136937;-38
2022/01/27 10:45:31;;;;;;;;;;;;;;;4.51;100.00;101964.44;2567492;30;137782;-38
2022/01/27 10:48:13;;;;;;;;;;;;;;;4.58;100.00;101964.72;2569376;30;137049;-38
2022/01/27 10:50:47;;;;;;;;;;;;;;;4.57;100.00;101963.03;2568825;30;138391;-38
2022/01/27 10:53:17;;;;;;;;;;;;;;;4.62;100.00;101952.63;2569094;30;137086;-38
2022/01/27 10:55:45;;;;;;;;;;;;;;;4.68;100.00;101949.31;2568543;30;138290;-38
2022/01/27 10:58:26;;;;;;;;;;;;;;;4.71;100.00;101956.31;2568176;30;136826;-38
2022/01/27 11:00:58;;;;;;;;;;;;;;;4.75;100.00;101947.75;2569172;30;138529;-38
2022/01/27 11:03:29;;;;;;;;;;;;;;;4.74;100.00;101946.03;2568687;30;137042;-38
2022/01/27 11:06:05;;;;;;;;;;;;;;;4.80;100.00;101939.19;2568263;30;138205;-38
2022/01/27 11:08:34;;;;;;;;;;;;;;;4.79;100.00;101936.66;2568743;30;137309;-38
2022/01/27 11:11:03;;;;;;;;;;;;;;;4.80;100.00;101933.78;2568372;30;138372;-38
2022/01/27 11:13:33;;;;;;;;;;;;;;;4.79;100.00;101939.34;2568788;30;137177;-38
2022/01/27 11:16:03;;;;;;;;;;;;;;;4.80;100.00;101946.47;2565713;30;138246;-38
2022/01/27 11:18:31;;;;;;;;;;;;;;;4.80;100.00;101939.19;2568803;30;136944;-38
2022/01/27 11:21:07;;;;;;;;;;;;;;;4.82;100.00;101930.94;2568938;30;138553;-38
2022/01/27 11:26:09;;;;;;;;;;;;;;;4.81;100.00;101924.69;2565739;30;138570;-38
2022/01/27 11:28:41;;;;;;;;;;;;;;;4.79;100.00;101925.84;2568100;30;137125;-38
2022/01/27 11:31:09;;;;;;;;;;;;;;;4.79;100.00;101915.84;2568566;30;138160;-37
2022/01/27 11:33:37;;;;;;;;;;;;;;;4.84;100.00;101928.94;2568186;30;137700;-38
2022/01/27 11:36:05;;;;;;;;;;;;;;;4.82;100.00;101920.13;2567115;30;137922;-38
2022/01/27 11:38:34;;;;;;;;;;;;;;;4.86;100.00;101918.84;2568526;30;137166;-38
2022/01/27 11:41:02;;;;;;;;;;;;;;;4.82;100.00;101912.84;2567230;30;137280;-38
2022/01/27 11:43:33;;;;;;;;;;;;;;;4.84;100.00;101912.72;2567406;30;137411;-38
2022/01/27 11:46:15;;;;;;;;;;;;;;;4.86;100.00;101905.31;2569448;30;137717;-38
2022/01/27 11:48:43;;;;;;;;;;;;;;;4.85;100.00;101904.44;2568519;30;136749;-38
2022/01/27 11:51:13;;;;;;;;;;;;;;;4.87;100.00;101901.59;2566941;30;137771;-38
2022/01/27 11:53:42;;;;;;;;;;;;;;;4.86;100.00;101903.44;2569181;30;137172;-38
2022/01/27 11:56:29;;;;;;;;;;;;;;;4.90;100.00;101899.44;2569470;30;138349;-38
2022/01/27 11:58:58;;;;;;;;;;;;;;;4.91;100.00;101900.31;2567898;30;136963;-38
2022/01/27 12:01:30;;;;;;;;;;;;;;;4.89;100.00;101899.59;2568175;30;138597;-38
2022/01/27 12:04:07;;;;;;;;;;;;;;;4.93;100.00;101898.31;2568006;30;136957;-38
2022/01/27 12:06:50;;;;;;;;;;;;;;;4.91;100.00;101892.19;2568197;30;137297;-38
2022/01/27 12:09:18;;;;;;;;;;;;;;;4.95;100.00;101904.41;2566632;30;137389;-38
2022/01/27 12:11:54;;;;;;;;;;;;;;;4.98;100.00;101896.00;2567580;30;139177;-38
2022/01/27 12:14:25;;;;;;;;;;;;;;;4.97;100.00;101894.28;2567805;30;137267;-38
2022/01/27 12:17:08;;;;;;;;;;;;;;;5.01;100.00;101887.56;2566513;30;138323;-38
2022/01/27 12:19:45;;;;;;;;;;;;;;;5.03;100.00;101885.56;2566800;30;137121;-38
2022/01/27 12:22:15;;;;;;;;;;;;;;;5.06;100.00;101872.78;2567280;30;137824;-38
2022/01/27 12:25:03;;;;;;;;;;;;;;;5.08;100.00;101876.19;2566333;30;137277;-38
2022/01/27 12:27:31;;;;;;;;;;;;;;;5.09;100.00;101884.13;2567580;30;137341;-38
2022/01/27 12:30:18;;;;;;;;;;;;;;;5.11;100.00;101879.41;2565988;30;137866;-37
2022/01/27 12:32:46;;;;;;;;;;;;;;;5.14;100.00;101878.28;2566971;30;138225;-38
2022/01/27 12:35:16;;;;;;;;;;;;;;;5.16;100.00;101878.97;2566964;30;137319;-38
2022/01/27 12:37:46;;;;;;;;;;;;;;;5.19;100.00;101873.25;2568635;30;138142;-38
2022/01/27 12:40:18;;;;;;;;;;;;;;;5.20;100.00;101877.66;2566540;30;137120;-37
2022/01/27 12:42:55;;;;;;;;;;;;;;;5.19;100.00;101878.66;2566147;30;137292;-38
2022/01/27 12:45:28;;;;;;;;;;;;;;;5.16;100.00;101866.28;2569317;30;137362;-38
2022/01/27 12:47:59;;;;;;;;;;;;;;;5.18;100.00;101879.69;2567671;30;138486;-38
2022/01/27 12:50:28;;;;;;;;;;;;;;;5.20;100.00;101885.78;2568022;30;136990;-37
2022/01/27 12:52:59;;;;;;;;;;;;;;;5.20;100.00;101874.13;2565590;30;139887;-38
2022/01/27 12:55:31;;;;;;;;;;;;;;;5.21;100.00;101868.53;2568561;30;137266;-38
2022/01/27 12:58:03;;;;;;;;;;;;;;;5.23;100.00;101873.81;2565210;30;138315;-38
2022/01/27 13:00:39;;;;;;;;;;;;;;;5.20;100.00;101864.13;2567958;30;137081;-38
2022/01/27 13:03:07;;;;;;;;;;;;;;;5.25;100.00;101863.69;2568051;30;138444;-38
2022/01/27 13:05:36;;;;;;;;;;;;;;;5.25;100.00;101867.22;2567822;30;137748;-38
2022/01/27 13:08:15;;;;;;;;;;;;;;;5.26;100.00;101857.28;2567692;30;138373;-38
2022/01/27 13:10:48;;;;;;;;;;;;;;;5.26;100.00;101859.97;2567433;30;137778;-38
2022/01/27 13:13:22;;;;;;;;;;;;;;;5.32;100.00;101862.94;2567378;30;139500;-38
2022/01/27 13:16:54;;;;;;;;;;;;;;;5.34;100.00;101849.25;2566173;30;136859;-40
2022/01/27 13:19:37;;;;;;;;;;;;;;;5.37;100.00;101842.69;2567268;30;138195;-40
2022/01/27 13:22:08;;;;;;;;;;;;;;;5.38;100.00;101847.09;2568175;30;137116;-40
2022/01/27 13:24:44;;;;;;;;;;;;;;;5.39;100.00;101851.50;2566555;30;137617;-40
2022/01/27 13:27:13;;;;;;;;;;;;;;;5.39;100.00;101846.91;2568098;30;138315;-40
2022/01/27 13:29:45;;;;;;;;;;;;;;;5.40;100.00;101842.38;2567894;30;139061;-40
2022/01/27 13:32:14;;;;;;;;;;;;;;;5.39;100.00;101841.50;2568295;30;137165;-40